Snowbird, Utah
Current Conditions -  °F | °C
As of 12:15 PM on Thursday 18 Dec 2014 (Local Time) from K36U Reporting Station
Light Snow Light Snow  
Wind Chill: 32°   Ceiling: 3000
Heat Index: 32°   Visibility: 5mi
Dew Point: 30°   Wind: 0mph
Humidity: 93%   Direction: NA
Pressure: 30.12"   Gusts: NA
Location:  40.5907°N, 111.707°W
Report Text: K36U 181915Z AUTO 00000KT 5SM -SN SCT017 BKN030 OVC038 00/M01 A3012 RMK AO2
Loading
Personal Weather Stations






























Interactive Weather Map New forecast layout! Learn more

10-Day Weather Forecast

Advertisements
Track Severe Weather on mobile